Cedar Springs, MI (49319)

8:18 AM EDT on July 03, 2015 (GMT -0400)
SE Cedar Springs | | Change Station
CLOSE
Current Station
Personal Weather Station
Location: Cedar Springs, MI
Elevation: 865 ft
Nearby Weather Stations

Elev 865 ft 43.19 °N, 85.51 °W | Updated 0 second ago

Partly Cloudy
Partly Cloudy
56.6 °F
Feels Like 56.6 °F
N
0.0
Wind Variable Wind from West
Gusts 2.0 mph

Today
High -- | Low -- °F
--% Chance of Precip.
Yesterday
High -- | Low -- °F
Precip. -- in
6:07 AM 9:25 PM
Full, 97% visible
Pressure 30.01 in
Visibility 10.0 miles
Clouds Mostly Cloudy 23000 ft
Dew Point 52 °F
Humidity 85%
Rainfall 0.00 in
Snow Depth Not available.
UV 1 out of 12
Pollen 4.80 out of 12
Air Quality Not available.
Flu Activity Not available.
METAR KGRR 031153Z 08003KT 10SM BKN230 13/10 A3001 RMK AO2 SLP161 T01280100 10133 20100 51004

More Conditions Fewer Conditions

Pressure 30.01 in
Visibility 10.0 miles
Clouds Mostly Cloudy 23000 ft
Dew Point 52 °F
Humidity 85%
Rainfall 0.00 in
Snow Depth Not available.
UV 1 out of 12
Pollen 4.80 out of 12
Air Quality Not available.
Flu Activity Not available.
METAR KGRR 031153Z 08003KT 10SM BKN230 13/10 A3001 RMK AO2 SLP161 T01280100 10133 20100 51004

More Conditions Fewer Conditions

10-Day Weather Forecast

×

Almanac

Astronomy

Jul. 03, 2015 Rise Set
Actual Time
Civil Twilight
Nautical Twilight
Astronomical Twilight
Moon
Length of Visible Light
Length of Day
Tomorrow will be .
, % of the Moon is Illuminated

Today's Extremes

State Highs State Lows

Community

WunderPhotos

Upload Photos

1,834,656 photos uploaded!

WunderBlogs® & News

Nearby

Air Quality

  Air Quality AQ Index Pollutant
Not available.

Snow Depth

Station Depth Elevation

Earthquake Activity

City Distance Mag. Time & Date
Minimum magnitude displayed is 2.5.

Coastal Water Temperatures

Place Temperature

Stations

Nearby Weather Stations

Station Location Temp. Windchill Dew Point Humidity Wind Precip. Elev Updated Type